Terminal Aerodrome Forecast
Issued by NWS

Current Version | Previous Version | Text Only | Print | Product List | Glossary On
Versions: 1 2 3 4 5 6 7 8 9 10 11 12 13 14 15 16 17 18 19 20 21 22 23 24 25 26 27 28 29 30 31 32 33 34 35 36 37 38 39 40 41 42 43 44 45 46 47 48 49 50
000
FTUS43 KMKX 301834 AAA
TAFENW
TAF AMD
KENW 301834Z 3019/3118 25018G25KT P6SM SCT030 BKN035 OVC050
      TEMPO 3019/3021 5SM -SHRA OVC030
     FM302100 24012KT P6SM BKN035
     FM310000 26007KT P6SM SCT030 BKN040
     FM310200 26006KT P6SM BKN060
     FM310500 28004KT 5SM BR SCT050
     FM310900 VRB03KT 3SM BR SCT003
     FM311000 VRB03KT 1SM BR BKN005
     FM311300 VRB03KT 2SM BR SCT008 BKN015
     FM311400 21005KT P6SM SCT035=

USA.gov is the U.S. government's official web portal to all federal, state and local government web resources and services.